createdAt,value
2023-01-29T00:00:15.677Z,59.25
2023-01-29T00:02:44.012Z,58.85
2023-01-29T00:08:00.323Z,58.80
2023-01-29T00:10:20.966Z,58.59
2023-01-29T00:10:28.526Z,58.42
2023-01-29T00:12:57.918Z,59.25
2023-01-29T00:15:25.968Z,58.54
2023-01-29T00:17:54.023Z,58.54
2023-01-29T00:20:22.175Z,58.96
2023-01-29T00:22:50.227Z,58.94
2023-01-29T00:25:18.463Z,58.69
2023-01-29T00:27:46.572Z,58.01
2023-01-29T00:30:19.602Z,57.93
2023-01-29T00:32:48.083Z,58.54
2023-01-29T00:35:16.174Z,58.41
2023-01-29T00:37:44.295Z,58.39
2023-01-29T00:40:13.224Z,58.06
2023-01-29T00:42:58.901Z,58.03
2023-01-29T00:45:28.278Z,58.80
2023-01-29T00:47:56.424Z,58.50
2023-01-29T00:50:24.462Z,58.43
2023-01-29T00:52:54.599Z,57.82
2023-01-29T00:55:22.951Z,57.22
2023-01-29T00:57:51.269Z,57.86
2023-01-29T01:00:20.820Z,57.96
2023-01-29T01:03:07.709Z,58.70
2023-01-29T01:05:36.778Z,58.39
2023-01-29T01:08:25.596Z,59.06
2023-01-29T01:11:00.683Z,58.79
2023-01-29T01:13:29.045Z,58.76
2023-01-29T01:15:58.538Z,58.66
2023-01-29T01:18:31.572Z,58.24
2023-01-29T01:20:59.759Z,58.64
2023-01-29T01:23:28.215Z,58.51
2023-01-29T01:25:56.323Z,59.39
2023-01-29T01:28:24.418Z,58.52
2023-01-29T01:30:52.554Z,58.10
2023-01-29T01:33:20.627Z,57.99
2023-01-29T01:35:50.158Z,58.42
2023-01-29T01:38:18.195Z,58.55
2023-01-29T01:40:47.582Z,58.44
2023-01-29T01:43:15.730Z,58.34
2023-01-29T01:45:46.617Z,58.58
2023-01-29T01:48:21.389Z,58.74
2023-01-29T01:50:54.594Z,58.41
2023-01-29T01:53:28.087Z,58.30
2023-01-29T01:56:02.199Z,58.96
2023-01-29T01:58:35.859Z,58.71
2023-01-29T02:01:05.906Z,58.56
2023-01-29T02:03:54.767Z,59.13
2023-01-29T02:06:43.479Z,58.98
2023-01-29T02:09:37.714Z,58.83
2023-01-29T02:12:08.370Z,58.86
2023-01-29T02:14:40.349Z,58.27
2023-01-29T02:17:12.816Z,57.92
2023-01-29T02:19:54.127Z,58.42
2023-01-29T02:23:08.668Z,57.80
2023-01-29T02:25:59.005Z,58.32
2023-01-29T02:28:48.875Z,58.04
2023-01-29T02:31:27.269Z,57.65
2023-01-29T02:34:08.923Z,58.03
2023-01-29T02:36:45.900Z,57.81
2023-01-29T02:39:22.226Z,57.88
2023-01-29T02:42:00.789Z,58.02
2023-01-29T02:44:38.961Z,57.88
2023-01-29T02:47:18.913Z,58.47
2023-01-29T02:51:27.124Z,57.91
2023-01-29T02:58:18.251Z,57.68
2023-01-29T03:00:50.424Z,57.99
2023-01-29T03:03:24.610Z,57.60
2023-01-29T03:06:02.199Z,57.84
2023-01-29T03:08:42.924Z,58.12
2023-01-29T03:11:18.597Z,57.70
2023-01-29T03:13:52.394Z,58.33
2023-01-29T03:16:28.981Z,58.29
2023-01-29T03:19:03.231Z,57.58
2023-01-29T03:21:55.286Z,57.34
2023-01-29T03:24:52.749Z,58.06
2023-01-29T03:27:51.587Z,58.13
2023-01-29T03:30:39.406Z,57.60
2023-01-29T03:33:27.343Z,57.95
2023-01-29T03:36:03.875Z,57.73
2023-01-29T03:38:32.159Z,57.93
2023-01-29T03:41:09.433Z,57.94
2023-01-29T03:43:48.742Z,58.30
2023-01-29T03:46:29.252Z,58.01
2023-01-29T03:49:08.377Z,58.19
2023-01-29T03:51:45.422Z,58.03
2023-01-29T03:54:26.386Z,57.59
2023-01-29T03:57:03.876Z,58.11
2023-01-29T03:59:42.437Z,58.13
2023-01-29T04:02:27.931Z,57.96
2023-01-29T04:05:08.419Z,58.19
2023-01-29T04:07:48.491Z,58.04
2023-01-29T04:10:20.296Z,57.99
2023-01-29T04:12:53.499Z,58.02
2023-01-29T04:15:23.322Z,58.13
2023-01-29T04:17:54.064Z,58.34
2023-01-29T04:20:30.985Z,58.22
2023-01-29T04:22:59.425Z,58.86
2023-01-29T04:25:37.343Z,58.84
2023-01-29T04:28:10.491Z,58.11
2023-01-29T04:30:47.823Z,58.86
2023-01-29T04:33:30.192Z,58.67
2023-01-29T04:36:23.185Z,59.13
2023-01-29T04:39:05.420Z,58.98
2023-01-29T04:41:40.567Z,58.77
2023-01-29T04:44:18.063Z,58.69
2023-01-29T04:46:53.850Z,58.46
2023-01-29T04:49:35.977Z,58.57
2023-01-29T04:52:13.080Z,58.37
2023-01-29T04:54:56.328Z,58.26
2023-01-29T04:57:30.384Z,58.60
2023-01-29T05:00:05.374Z,57.63
2023-01-29T05:02:39.254Z,58.08
2023-01-29T05:05:09.387Z,57.92
2023-01-29T05:07:41.485Z,58.34
2023-01-29T05:10:13.064Z,58.74
2023-01-29T05:12:43.885Z,58.99
2023-01-29T05:15:17.239Z,59.34
2023-01-29T05:17:45.377Z,59.41
2023-01-29T05:20:14.159Z,59.10
2023-01-29T05:22:45.502Z,59.55
2023-01-29T05:25:24.173Z,60.04
2023-01-29T05:28:06.303Z,59.56
2023-01-29T05:30:37.580Z,60.18
2023-01-29T05:33:12.437Z,59.70
2023-01-29T05:35:40.531Z,60.21
2023-01-29T05:38:10.483Z,60.59
2023-01-29T05:40:39.387Z,59.85
2023-01-29T05:43:14.668Z,59.70
2023-01-29T05:45:42.713Z,60.02
2023-01-29T05:48:10.847Z,60.39
2023-01-29T05:50:38.927Z,59.26
2023-01-29T05:53:07.012Z,59.37
2023-01-29T05:55:36.735Z,59.56
2023-01-29T05:58:06.040Z,59.03
2023-01-29T06:00:34.184Z,59.65
2023-01-29T06:03:02.371Z,59.32
2023-01-29T06:05:30.489Z,59.87
2023-01-29T06:07:58.712Z,59.88
2023-01-29T06:10:26.732Z,60.03
2023-01-29T06:12:56.074Z,59.64
2023-01-29T06:15:26.323Z,59.63
2023-01-29T06:17:55.055Z,59.69
2023-01-29T06:20:23.645Z,59.95
2023-01-29T06:22:51.730Z,60.24
2023-01-29T06:25:19.810Z,60.22
2023-01-29T06:27:51.144Z,60.47
2023-01-29T06:30:20.861Z,59.83
2023-01-29T06:32:48.939Z,60.29
2023-01-29T06:35:17.369Z,60.44
2023-01-29T06:37:45.431Z,60.77
2023-01-29T06:40:14.764Z,61.24
2023-01-29T06:42:44.669Z,60.80
2023-01-29T06:45:14.068Z,60.19
2023-01-29T06:47:46.100Z,59.37
2023-01-29T06:50:14.735Z,59.42
2023-01-29T06:52:42.950Z,59.67
2023-01-29T06:55:11.206Z,59.60
2023-01-29T06:57:39.257Z,59.82
2023-01-29T07:00:10.169Z,59.45
2023-01-29T07:02:38.460Z,59.16
2023-01-29T07:05:08.831Z,58.95
2023-01-29T07:07:37.679Z,59.23
2023-01-29T07:10:07.269Z,59.38
2023-01-29T07:12:35.380Z,59.42
2023-01-29T07:15:03.656Z,59.46
2023-01-29T07:17:31.710Z,59.63
2023-01-29T07:19:59.713Z,59.73
2023-01-29T07:22:29.024Z,60.08
2023-01-29T07:24:57.110Z,59.36
2023-01-29T07:27:25.297Z,59.41
2023-01-29T07:29:53.346Z,59.74
2023-01-29T07:32:21.507Z,59.51
2023-01-29T07:34:49.521Z,59.77
2023-01-29T07:37:41.677Z,59.64
2023-01-29T07:40:13.346Z,60.09
2023-01-29T07:42:42.221Z,60.45
2023-01-29T07:45:11.902Z,59.77
2023-01-29T07:47:40.154Z,59.84
2023-01-29T07:50:09.141Z,59.89
2023-01-29T07:52:37.852Z,59.74
2023-01-29T07:55:06.883Z,58.73
2023-01-29T07:57:36.988Z,58.59
2023-01-29T08:00:06.068Z,58.69
2023-01-29T08:02:40.759Z,59.72
2023-01-29T08:05:11.789Z,59.82
2023-01-29T08:07:40.096Z,59.55
2023-01-29T08:10:09.607Z,58.96
2023-01-29T08:12:39.119Z,58.89
2023-01-29T08:15:10.194Z,59.09
2023-01-29T08:18:06.428Z,59.50
2023-01-29T08:20:34.535Z,59.78
2023-01-29T08:23:04.471Z,60.10
2023-01-29T08:25:32.950Z,59.45
2023-01-29T08:28:03.087Z,59.70
2023-01-29T08:30:33.930Z,59.61
2023-01-29T08:33:04.113Z,59.16
2023-01-29T08:35:32.566Z,59.59
2023-01-29T08:38:03.273Z,59.50
2023-01-29T08:40:34.931Z,59.92
2023-01-29T08:43:15.515Z,59.21
2023-01-29T08:45:45.005Z,58.66
2023-01-29T08:48:13.555Z,59.18
2023-01-29T08:50:41.616Z,58.88
2023-01-29T08:53:34.556Z,57.98
2023-01-29T08:56:27.801Z,58.12
2023-01-29T08:59:00.691Z,58.43
2023-01-29T09:01:58.474Z,59.12
2023-01-29T09:04:51.386Z,58.72
2023-01-29T09:07:50.215Z,58.69
2023-01-29T09:10:19.535Z,59.20
2023-01-29T09:12:47.707Z,59.34
2023-01-29T09:15:17.719Z,59.06
2023-01-29T09:17:46.030Z,58.45
2023-01-29T09:20:39.347Z,58.54
2023-01-29T09:23:08.912Z,58.83
2023-01-29T09:25:37.448Z,58.45
2023-01-29T09:28:07.074Z,57.89
2023-01-29T09:30:38.126Z,57.37
2023-01-29T09:33:06.809Z,56.27
2023-01-29T09:35:35.607Z,56.53
2023-01-29T09:38:03.710Z,56.95
2023-01-29T09:40:39.412Z,56.68
2023-01-29T09:43:15.504Z,56.54
2023-01-29T09:45:54.194Z,55.92
2023-01-29T09:48:26.264Z,55.75
2023-01-29T09:50:58.753Z,56.23
2023-01-29T09:53:35.254Z,55.93
2023-01-29T09:56:10.412Z,55.22
2023-01-29T09:58:41.633Z,55.83
2023-01-29T10:01:18.974Z,56.51
2023-01-29T10:04:13.730Z,56.11
2023-01-29T10:06:58.788Z,55.48
2023-01-29T10:10:00.761Z,56.05
2023-01-29T10:12:54.475Z,55.86
2023-01-29T10:15:42.758Z,55.30
2023-01-29T10:18:37.054Z,55.01
2023-01-29T10:21:21.131Z,55.94
2023-01-29T10:23:53.740Z,54.95
2023-01-29T10:26:28.158Z,54.90
2023-01-29T10:28:58.412Z,54.54
2023-01-29T10:31:32.767Z,54.38
2023-01-29T10:34:11.072Z,55.23
2023-01-29T10:36:44.249Z,54.86
2023-01-29T10:39:18.678Z,54.85
2023-01-29T10:42:08.491Z,54.25
2023-01-29T10:44:55.305Z,54.12
2023-01-29T10:48:11.087Z,53.84
2023-01-29T10:50:50.027Z,55.06
2023-01-29T10:53:44.101Z,54.48
2023-01-29T10:56:30.319Z,53.87
2023-01-29T10:59:05.314Z,53.78
2023-01-29T11:01:33.539Z,53.63
2023-01-29T11:04:05.278Z,53.36
2023-01-29T11:06:37.187Z,54.57
2023-01-29T11:09:10.734Z,53.88
2023-01-29T11:11:47.134Z,53.64
2023-01-29T11:14:22.769Z,54.36
2023-01-29T11:16:51.131Z,54.08
2023-01-29T11:19:19.719Z,54.15
2023-01-29T11:21:59.460Z,54.28
2023-01-29T11:24:28.102Z,55.55
2023-01-29T11:26:59.995Z,55.42
2023-01-29T11:29:40.059Z,54.62
2023-01-29T11:32:15.101Z,54.70
2023-01-29T11:35:03.537Z,54.25
2023-01-29T11:37:38.559Z,54.26
2023-01-29T11:40:38.910Z,54.11
2023-01-29T11:43:32.077Z,53.97
2023-01-29T11:46:27.603Z,53.97
2023-01-29T11:48:59.411Z,54.07
2023-01-29T11:51:36.513Z,53.67
2023-01-29T11:54:20.435Z,54.09
2023-01-29T11:56:51.672Z,54.67
2023-01-29T11:59:38.273Z,53.70
2023-01-29T12:02:23.587Z,54.67
2023-01-29T12:04:52.301Z,54.15
2023-01-29T12:07:21.139Z,54.08
2023-01-29T12:09:57.542Z,53.89
2023-01-29T12:12:43.098Z,53.92
2023-01-29T12:15:46.702Z,53.80
2023-01-29T12:18:23.364Z,53.66
2023-01-29T12:20:58.582Z,54.14
2023-01-29T12:23:37.371Z,54.21
2023-01-29T12:26:13.695Z,54.10
2023-01-29T12:28:52.041Z,54.53
2023-01-29T12:34:36.158Z,54.56
2023-01-29T12:37:18.813Z,53.44
2023-01-29T12:39:47.226Z,53.52
2023-01-29T12:42:20.881Z,54.47
2023-01-29T12:44:53.572Z,54.62
2023-01-29T12:47:27.844Z,54.13
2023-01-29T12:50:01.089Z,54.59
2023-01-29T12:52:40.680Z,53.17
2023-01-29T12:55:17.177Z,54.72
2023-01-29T12:57:53.912Z,53.87
2023-01-29T13:00:25.372Z,53.65
2023-01-29T13:03:13.380Z,53.75
2023-01-29T13:05:51.703Z,53.76
2023-01-29T13:08:24.801Z,52.82
2023-01-29T13:14:22.440Z,54.02
2023-01-29T13:16:56.832Z,53.47
2023-01-29T13:19:30.494Z,53.12
2023-01-29T13:22:03.080Z,52.60
2023-01-29T13:24:39.849Z,52.09
2023-01-29T13:27:09.229Z,51.87
2023-01-29T13:29:39.282Z,51.81
2023-01-29T13:32:14.506Z,52.33
2023-01-29T13:34:48.357Z,52.10
2023-01-29T13:37:23.923Z,52.69
2023-01-29T13:39:54.349Z,52.58
2023-01-29T13:42:26.001Z,53.02
2023-01-29T13:44:58.581Z,52.77
2023-01-29T13:47:29.797Z,51.99
2023-01-29T13:50:02.695Z,52.19
2023-01-29T13:52:39.913Z,53.73
2023-01-29T13:55:23.821Z,53.71
2023-01-29T13:57:56.306Z,54.17
2023-01-29T14:01:00.341Z,53.05
2023-01-29T14:04:10.139Z,53.38
2023-01-29T14:06:50.922Z,53.75
2023-01-29T14:10:04.645Z,54.28
2023-01-29T14:12:47.919Z,54.37
2023-01-29T14:15:29.154Z,54.30
2023-01-29T14:18:25.806Z,55.47
2023-01-29T14:21:06.228Z,53.96
2023-01-29T14:23:41.234Z,54.41
2023-01-29T14:26:33.133Z,53.82
2023-01-29T14:29:08.639Z,54.77
2023-01-29T14:31:47.936Z,54.79
2023-01-29T14:34:31.962Z,55.35
2023-01-29T14:37:04.517Z,54.98
2023-01-29T14:39:43.818Z,54.43
2023-01-29T14:42:24.524Z,54.80
2023-01-29T14:45:11.478Z,55.05
2023-01-29T14:48:36.434Z,54.67
2023-01-29T14:51:13.688Z,54.82
2023-01-29T14:53:55.980Z,55.29
2023-01-29T14:56:33.638Z,54.53
2023-01-29T14:59:17.209Z,55.72
2023-01-29T15:01:53.980Z,55.18
2023-01-29T15:04:27.426Z,55.01
2023-01-29T15:07:04.290Z,54.25
2023-01-29T15:09:41.802Z,54.95
2023-01-29T15:12:21.391Z,55.09
2023-01-29T15:15:00.827Z,54.92
2023-01-29T15:17:33.939Z,55.13
2023-01-29T15:20:02.204Z,54.87
2023-01-29T15:22:32.884Z,55.00
2023-01-29T15:25:11.221Z,55.51
2023-01-29T15:27:43.457Z,55.50
2023-01-29T15:30:18.770Z,54.99
2023-01-29T15:32:48.611Z,54.49
2023-01-29T15:35:33.368Z,55.71
2023-01-29T15:38:05.709Z,55.53
2023-01-29T15:40:34.471Z,56.14
2023-01-29T15:43:02.594Z,54.99
2023-01-29T15:45:33.855Z,56.13
2023-01-29T15:48:06.712Z,55.88
2023-01-29T15:50:40.436Z,55.65
2023-01-29T15:53:24.992Z,55.89
2023-01-29T15:55:53.989Z,55.34
2023-01-29T15:58:29.247Z,56.63
2023-01-29T16:00:59.835Z,55.48
2023-01-29T16:03:31.699Z,55.06
2023-01-29T16:06:00.357Z,56.61
2023-01-29T16:08:30.278Z,57.03
2023-01-29T16:11:01.377Z,56.46
2023-01-29T16:13:32.360Z,56.54
2023-01-29T16:16:03.494Z,56.37
2023-01-29T16:18:36.208Z,56.80
2023-01-29T16:21:09.022Z,57.06
2023-01-29T16:23:43.723Z,57.56
2023-01-29T16:26:18.164Z,57.11
2023-01-29T16:28:47.470Z,57.70
2023-01-29T16:31:23.631Z,58.13
2023-01-29T16:33:52.247Z,57.30
2023-01-29T16:36:24.561Z,58.37
2023-01-29T16:39:00.104Z,57.54
2023-01-29T16:41:32.019Z,57.25
2023-01-29T16:44:04.584Z,57.36
2023-01-29T16:46:37.905Z,57.71
2023-01-29T16:49:49.905Z,58.31
2023-01-29T16:52:21.195Z,58.04
2023-01-29T16:54:49.266Z,57.59
2023-01-29T16:57:22.566Z,57.93
2023-01-29T16:59:54.832Z,57.41
2023-01-29T17:02:28.539Z,57.66
2023-01-29T17:05:03.291Z,58.38
2023-01-29T17:07:34.066Z,58.16
2023-01-29T17:10:06.234Z,58.07
2023-01-29T17:12:36.802Z,57.68
2023-01-29T17:15:36.812Z,58.22
2023-01-29T17:18:13.170Z,57.95
2023-01-29T17:20:42.563Z,58.09
2023-01-29T17:23:14.017Z,58.41
2023-01-29T17:25:43.791Z,58.95
2023-01-29T17:28:13.789Z,58.46
2023-01-29T17:30:43.448Z,58.56
2023-01-29T17:33:17.246Z,58.66
2023-01-29T17:35:46.992Z,58.68
2023-01-29T17:38:25.987Z,58.76
2023-01-29T17:40:59.052Z,58.71
2023-01-29T17:43:27.134Z,58.82
2023-01-29T17:45:55.575Z,59.41
2023-01-29T17:48:26.110Z,58.70
2023-01-29T17:50:58.675Z,59.06
2023-01-29T17:53:43.369Z,59.17
2023-01-29T17:56:18.469Z,58.61
2023-01-29T17:58:46.643Z,59.19
2023-01-29T18:01:14.870Z,58.47
2023-01-29T18:03:43.085Z,59.33
2023-01-29T18:06:23.048Z,59.59
2023-01-29T18:08:51.174Z,59.45
2023-01-29T18:11:19.254Z,58.91
2023-01-29T18:13:47.327Z,59.13
2023-01-29T18:16:15.496Z,59.32
2023-01-29T18:18:43.512Z,59.13
2023-01-29T18:21:12.908Z,59.26
2023-01-29T18:23:41.254Z,59.46
2023-01-29T18:26:12.693Z,59.35
2023-01-29T18:28:43.356Z,59.42
2023-01-29T18:31:13.943Z,59.85
2023-01-29T18:33:42.347Z,59.32
2023-01-29T18:36:10.917Z,59.43
2023-01-29T18:38:40.438Z,59.55
2023-01-29T18:41:11.490Z,58.88
2023-01-29T18:43:40.862Z,59.30
2023-01-29T18:46:10.373Z,59.93
2023-01-29T18:48:39.550Z,59.55
2023-01-29T18:51:09.028Z,59.04
2023-01-29T18:53:37.148Z,59.28
2023-01-29T18:56:08.476Z,59.53
2023-01-29T18:58:37.836Z,59.32
2023-01-29T19:01:09.681Z,59.25
2023-01-29T19:03:38.551Z,59.77
2023-01-29T19:06:09.345Z,58.87
2023-01-29T19:08:37.906Z,59.70
2023-01-29T19:11:08.892Z,59.81
2023-01-29T19:13:39.141Z,59.74
2023-01-29T19:16:09.956Z,59.77
2023-01-29T19:18:38.827Z,60.34
2023-01-29T19:21:12.276Z,59.70
2023-01-29T19:23:41.237Z,59.95
2023-01-29T19:26:12.134Z,59.97
2023-01-29T19:28:40.521Z,60.10
2023-01-29T19:31:09.337Z,59.99
2023-01-29T19:33:38.855Z,60.54
2023-01-29T19:36:08.201Z,60.08
2023-01-29T19:38:39.194Z,59.50
2023-01-29T19:41:07.651Z,59.55
2023-01-29T19:43:38.151Z,59.53
2023-01-29T19:46:07.513Z,59.25
2023-01-29T19:48:35.961Z,59.37
2023-01-29T19:51:08.420Z,59.32
2023-01-29T19:53:38.326Z,59.72
2023-01-29T19:56:09.316Z,59.62
2023-01-29T19:58:38.968Z,59.17
2023-01-29T20:01:14.262Z,59.48
2023-01-29T20:03:42.790Z,59.09
2023-01-29T20:06:11.679Z,60.30
2023-01-29T20:08:39.801Z,60.09
2023-01-29T20:11:09.625Z,60.32
2023-01-29T20:13:39.248Z,59.56
2023-01-29T20:16:08.944Z,60.29
2023-01-29T20:18:37.228Z,60.53
2023-01-29T20:21:09.259Z,59.65
2023-01-29T20:23:39.015Z,60.03
2023-01-29T20:26:09.090Z,60.06
2023-01-29T20:28:41.027Z,59.41
2023-01-29T20:31:19.746Z,59.91
2023-01-29T20:33:47.801Z,59.98
2023-01-29T20:36:16.284Z,59.53
2023-01-29T20:38:48.199Z,59.87
2023-01-29T20:41:18.444Z,60.49
2023-01-29T20:43:50.941Z,60.91
2023-01-29T20:46:19.445Z,59.85
2023-01-29T20:48:49.048Z,60.18
2023-01-29T20:51:18.265Z,60.53
2023-01-29T20:53:48.358Z,60.96
2023-01-29T20:56:18.281Z,60.29
2023-01-29T20:58:54.104Z,60.35
2023-01-29T21:01:22.669Z,59.98
2023-01-29T21:03:50.748Z,60.29
2023-01-29T21:06:22.420Z,60.08
2023-01-29T21:08:50.539Z,60.27
2023-01-29T21:11:19.143Z,59.99
2023-01-29T21:13:47.261Z,60.31
2023-01-29T21:16:16.710Z,60.10
2023-01-29T21:18:44.830Z,61.59
2023-01-29T21:21:12.973Z,60.75
2023-01-29T21:23:41.139Z,60.69
2023-01-29T21:26:09.554Z,60.73
2023-01-29T21:28:37.612Z,60.04
2023-01-29T21:31:07.462Z,60.36
2023-01-29T21:33:37.203Z,60.60
2023-01-29T21:36:06.168Z,60.63
2023-01-29T21:38:34.470Z,59.87
2023-01-29T21:41:04.433Z,59.79
2023-01-29T21:43:31.559Z,59.32
2023-01-29T21:46:03.829Z,59.75
2023-01-29T21:48:32.238Z,59.75
2023-01-29T21:51:01.671Z,60.33
2023-01-29T21:53:29.725Z,59.54
2023-01-29T21:56:01.651Z,59.76
2023-01-29T21:58:30.253Z,60.34
2023-01-29T22:01:36.724Z,60.69
2023-01-29T22:03:47.779Z,60.61
2023-01-29T22:06:17.773Z,59.97
2023-01-29T22:08:46.020Z,60.11
2023-01-29T22:11:14.284Z,59.88
2023-01-29T22:13:42.313Z,60.28
2023-01-29T22:16:10.902Z,60.49
2023-01-29T22:18:39.036Z,59.99
2023-01-29T22:21:07.244Z,60.13
2023-01-29T22:23:36.646Z,60.40
2023-01-29T22:26:06.700Z,59.39
2023-01-29T22:28:34.998Z,59.62
2023-01-29T22:31:03.672Z,59.34
2023-01-29T22:33:32.073Z,59.75
2023-01-29T22:36:00.281Z,60.63
2023-01-29T22:38:28.399Z,59.92
2023-01-29T22:41:00.568Z,60.09
2023-01-29T22:43:29.108Z,59.69
2023-01-29T22:45:57.340Z,59.98
2023-01-29T22:48:25.636Z,59.74
2023-01-29T22:51:09.668Z,59.58
2023-01-29T22:53:38.756Z,59.74
2023-01-29T22:56:09.329Z,59.35
2023-01-29T22:58:37.920Z,59.96
2023-01-29T23:01:06.292Z,58.86
2023-01-29T23:03:34.820Z,59.17
2023-01-29T23:06:03.485Z,59.81
2023-01-29T23:08:33.767Z,58.88
2023-01-29T23:11:14.353Z,59.59
2023-01-29T23:13:45.996Z,59.26
2023-01-29T23:16:15.707Z,60.09
2023-01-29T23:18:44.214Z,59.74
2023-01-29T23:21:12.561Z,60.08
2023-01-29T23:23:40.649Z,60.60
2023-01-29T23:26:28.773Z,61.20
2023-01-29T23:28:58.204Z,59.89
2023-01-29T23:31:26.849Z,60.50
2023-01-29T23:33:54.911Z,60.38
2023-01-29T23:36:23.336Z,59.84
2023-01-29T23:38:51.361Z,60.60
2023-01-29T23:41:19.473Z,59.17
2023-01-29T23:43:47.518Z,59.84
2023-01-29T23:46:16.923Z,59.05
2023-01-29T23:48:45.010Z,59.37
2023-01-29T23:51:13.069Z,59.85
2023-01-29T23:53:41.628Z,60.36
2023-01-29T23:56:11.727Z,61.29
2023-01-29T23:58:39.804Z,60.30
